createdAt,value
2023-03-19T00:00:35.939Z,22.60
2023-03-19T00:05:53.114Z,22.70
2023-03-19T00:11:08.747Z,25.38
2023-03-19T00:16:22.456Z,21.27
2023-03-19T00:18:49.247Z,20.93
2023-03-19T00:21:16.000Z,25.00
2023-03-19T00:23:42.831Z,23.17
2023-03-19T00:26:09.595Z,20.08
2023-03-19T00:28:36.567Z,19.30
2023-03-19T00:31:16.764Z,20.10
2023-03-19T00:36:30.782Z,23.48
2023-03-19T00:41:44.275Z,23.93
2023-03-19T00:46:57.660Z,25.88
2023-03-19T00:49:24.430Z,23.02
2023-03-19T00:51:51.160Z,20.97
2023-03-19T00:54:17.935Z,21.20
2023-03-19T00:56:44.674Z,20.90
2023-03-19T00:59:11.458Z,21.27
2023-03-19T01:01:38.277Z,21.45
2023-03-19T01:04:05.315Z,20.08
2023-03-19T01:06:32.384Z,21.15
2023-03-19T01:08:59.535Z,22.55
2023-03-19T01:11:26.298Z,19.20
2023-03-19T01:13:53.054Z,21.40
2023-03-19T01:16:19.863Z,23.02
2023-03-19T01:18:46.644Z,23.17
2023-03-19T01:21:13.539Z,23.20
2023-03-19T01:23:40.411Z,23.73
2023-03-19T01:26:07.231Z,23.27
2023-03-19T01:28:34.027Z,25.00
2023-03-19T01:31:07.266Z,27.00
2023-03-19T01:33:34.156Z,22.87
2023-03-19T01:36:01.271Z,27.42
2023-03-19T01:38:28.341Z,26.48
2023-03-19T01:40:55.227Z,25.15
2023-03-19T01:43:26.989Z,26.48
2023-03-19T01:46:00.184Z,22.77
2023-03-19T01:48:49.680Z,23.85
2023-03-19T01:51:20.432Z,23.38
2023-03-19T01:56:41.933Z,24.35
2023-03-19T01:59:26.970Z,24.10
2023-03-19T02:02:07.922Z,21.23
2023-03-19T02:04:36.507Z,23.40
2023-03-19T02:07:03.868Z,21.20
2023-03-19T02:09:31.981Z,22.13
2023-03-19T02:12:00.459Z,22.80
2023-03-19T02:14:27.412Z,24.65
2023-03-19T02:16:55.221Z,23.23
2023-03-19T02:19:34.957Z,22.40
2023-03-19T02:22:03.144Z,26.20
2023-03-19T02:24:38.988Z,27.38
2023-03-19T02:27:07.914Z,25.02
2023-03-19T02:29:34.945Z,25.70
2023-03-19T02:32:01.764Z,24.73
2023-03-19T02:34:33.251Z,23.47
2023-03-19T02:37:10.808Z,25.10
2023-03-19T02:39:47.439Z,28.10
2023-03-19T02:45:02.645Z,23.67
2023-03-19T02:47:29.479Z,25.00
2023-03-19T02:49:56.350Z,22.65
2023-03-19T02:52:23.191Z,25.73
2023-03-19T02:54:49.966Z,23.83
2023-03-19T02:57:16.760Z,24.90
2023-03-19T02:59:43.499Z,24.40
2023-03-19T03:02:10.582Z,24.67
2023-03-19T03:04:37.547Z,25.17
2023-03-19T03:07:05.609Z,24.23
2023-03-19T03:09:32.392Z,24.75
2023-03-19T03:11:59.207Z,26.60
2023-03-19T03:14:26.017Z,24.60
2023-03-19T03:16:52.832Z,27.40
2023-03-19T03:19:19.669Z,27.13
2023-03-19T03:21:46.389Z,25.13
2023-03-19T03:24:13.171Z,24.70
2023-03-19T03:26:39.935Z,25.73
2023-03-19T03:29:07.803Z,24.55
2023-03-19T03:31:35.020Z,24.65
2023-03-19T03:34:02.352Z,24.43
2023-03-19T03:36:29.253Z,24.67
2023-03-19T03:38:56.191Z,23.88
2023-03-19T03:41:23.005Z,25.85
2023-03-19T03:43:49.751Z,26.15
2023-03-19T03:46:16.565Z,27.13
2023-03-19T03:51:30.047Z,27.02
2023-03-19T03:56:43.521Z,24.02
2023-03-19T03:59:10.326Z,28.33
2023-03-19T04:01:37.087Z,25.77
2023-03-19T04:04:03.868Z,24.27
2023-03-19T04:06:30.748Z,27.00
2023-03-19T04:08:57.491Z,25.60
2023-03-19T04:11:24.273Z,24.55
2023-03-19T04:13:51.004Z,24.55
2023-03-19T04:16:17.864Z,24.63
2023-03-19T04:18:44.641Z,25.30
2023-03-19T04:21:11.384Z,24.63
2023-03-19T04:26:24.935Z,24.88
2023-03-19T04:31:38.354Z,27.75
2023-03-19T04:36:52.663Z,25.02
2023-03-19T04:42:06.230Z,26.08
2023-03-19T04:44:32.987Z,26.15
2023-03-19T04:46:59.886Z,25.98
2023-03-19T04:49:26.744Z,26.00
2023-03-19T04:51:53.490Z,30.05
2023-03-19T04:54:20.339Z,29.08
2023-03-19T04:56:47.069Z,25.65
2023-03-19T04:59:13.856Z,24.20
2023-03-19T05:01:40.643Z,27.73
2023-03-19T05:04:07.765Z,28.67
2023-03-19T05:06:34.748Z,27.03
2023-03-19T05:11:48.252Z,25.50
2023-03-19T05:17:01.742Z,26.00
2023-03-19T05:22:15.432Z,28.77
2023-03-19T05:27:28.856Z,28.67
2023-03-19T05:29:55.599Z,27.27
2023-03-19T05:32:22.333Z,29.30
2023-03-19T05:34:49.090Z,29.65
2023-03-19T05:37:15.863Z,27.20
2023-03-19T05:39:42.593Z,26.95
2023-03-19T05:42:09.511Z,27.70
2023-03-19T05:44:37.084Z,30.05
2023-03-19T05:47:04.083Z,29.23
2023-03-19T05:49:30.854Z,30.48
2023-03-19T05:51:57.668Z,30.13
2023-03-19T05:54:24.472Z,28.45
2023-03-19T05:56:51.231Z,26.38
2023-03-19T05:59:17.979Z,28.08
2023-03-19T06:01:45.187Z,33.20
2023-03-19T06:04:12.015Z,26.40
2023-03-19T06:06:38.804Z,24.70
2023-03-19T06:11:52.416Z,19.80
2023-03-19T06:17:05.955Z,21.90
2023-03-19T06:21:59.411Z,19.75
2023-03-19T06:24:26.272Z,18.75
2023-03-19T06:26:53.021Z,19.27
2023-03-19T06:29:19.790Z,17.57
2023-03-19T06:31:46.576Z,16.40
2023-03-19T06:34:13.405Z,18.10
2023-03-19T06:36:40.290Z,15.77
2023-03-19T06:39:07.038Z,16.02
2023-03-19T06:41:33.809Z,13.43
2023-03-19T06:44:00.622Z,14.90
2023-03-19T06:46:27.389Z,14.63
2023-03-19T06:48:54.140Z,14.63
2023-03-19T06:54:07.669Z,13.68
2023-03-19T06:59:21.234Z,18.27
2023-03-19T07:04:34.805Z,11.48
2023-03-19T07:07:01.580Z,14.82
2023-03-19T07:09:28.621Z,14.93
2023-03-19T07:11:55.385Z,12.15
2023-03-19T07:14:22.253Z,12.98
2023-03-19T07:16:49.026Z,13.52
2023-03-19T07:19:16.512Z,12.38
2023-03-19T07:21:43.261Z,12.55
2023-03-19T07:24:10.001Z,12.23
2023-03-19T07:26:36.773Z,10.32
2023-03-19T07:29:03.839Z,11.10
2023-03-19T07:31:30.741Z,11.25
2023-03-19T07:33:57.522Z,9.70
2023-03-19T07:36:24.323Z,9.30
2023-03-19T07:38:51.068Z,9.30
2023-03-19T07:41:04.586Z,0
2023-03-19T07:41:18.132Z,8.68
2023-03-19T07:43:44.920Z,8.73
2023-03-19T07:46:11.792Z,8.45
2023-03-19T07:47:32.010Z,0
2023-03-19T07:51:25.283Z,10.13
2023-03-19T07:56:38.639Z,8.85
2023-03-19T07:59:05.466Z,7.13
2023-03-19T08:01:32.522Z,10.82
2023-03-19T08:03:59.337Z,9.57
2023-03-19T08:06:26.103Z,7.82
2023-03-19T08:08:52.856Z,6.07
2023-03-19T08:11:19.677Z,7.10
2023-03-19T08:13:46.500Z,6.10
2023-03-19T08:16:13.361Z,7.00
2023-03-19T08:18:40.148Z,5.40
2023-03-19T08:21:06.924Z,6.57
2023-03-19T08:23:33.753Z,6.00
2023-03-19T08:26:00.552Z,6.87
2023-03-19T08:28:27.317Z,6.32
2023-03-19T08:30:54.087Z,6.80
2023-03-19T08:33:20.957Z,5.80
2023-03-19T08:35:47.884Z,5.87
2023-03-19T08:38:14.747Z,6.10
2023-03-19T08:40:41.518Z,6.65
2023-03-19T08:43:08.292Z,6.90
2023-03-19T08:48:21.714Z,6.30
2023-03-19T08:53:41.237Z,7.07
2023-03-19T08:58:56.966Z,6.80
2023-03-19T09:03:50.478Z,6.90
2023-03-19T09:06:17.313Z,7.20
2023-03-19T09:08:44.147Z,6.10
2023-03-19T09:11:10.965Z,12.35
2023-03-19T09:13:37.783Z,12.50
2023-03-19T09:16:05.380Z,12.15
2023-03-19T09:18:32.873Z,9.93
2023-03-19T09:20:59.782Z,7.75
2023-03-19T09:23:27.204Z,10.07
2023-03-19T09:25:54.065Z,10.40
2023-03-19T09:28:20.998Z,8.50
2023-03-19T09:30:49.646Z,7.00
2023-03-19T09:36:05.108Z,8.00
2023-03-19T09:41:46.566Z,8.30
2023-03-19T09:44:17.729Z,8.13
2023-03-19T09:47:03.368Z,7.38
2023-03-19T09:49:36.225Z,12.45
2023-03-19T09:58:19.216Z,9.68
2023-03-19T10:00:54.152Z,10.48
2023-03-19T10:03:55.101Z,8.53
2023-03-19T10:06:21.817Z,7.65
2023-03-19T10:12:12.242Z,7.65
2023-03-19T10:14:42.027Z,7.90
2023-03-19T10:17:16.986Z,6.72
2023-03-19T10:19:43.932Z,8.20
2023-03-19T10:22:19.105Z,7.13
2023-03-19T10:24:48.719Z,8.07
2023-03-19T10:27:19.305Z,10.90
2023-03-19T10:29:46.380Z,8.57
2023-03-19T10:38:26.220Z,8.73
2023-03-19T10:41:11.396Z,8.50
2023-03-19T10:43:40.671Z,7.63
2023-03-19T10:48:59.763Z,9.15
2023-03-19T10:53:54.379Z,9.67
2023-03-19T10:56:23.907Z,8.10
2023-03-19T10:59:05.553Z,6.90
2023-03-19T11:01:38.307Z,12.60
2023-03-19T11:04:18.730Z,12.13
2023-03-19T11:06:50.780Z,9.90
2023-03-19T11:08:38.151Z,0
2023-03-19T11:09:35.468Z,7.60
2023-03-19T11:12:28.385Z,7.60
2023-03-19T11:12:56.384Z,0
2023-03-19T11:14:58.179Z,7.95
2023-03-19T11:17:38.135Z,6.68
2023-03-19T11:20:36.442Z,7.22
2023-03-19T11:23:11.741Z,7.70
2023-03-19T11:26:00.326Z,7.60
2023-03-19T11:28:28.382Z,7.40
2023-03-19T11:31:16.076Z,7.30
2023-03-19T11:34:03.118Z,7.18
2023-03-19T11:36:32.678Z,7.80
2023-03-19T11:45:44.910Z,7.95
2023-03-19T11:48:29.904Z,7.15
2023-03-19T11:51:09.398Z,8.30
2023-03-19T11:53:41.885Z,14.73
2023-03-19T11:56:31.613Z,9.60
2023-03-19T12:03:04.137Z,7.43
2023-03-19T12:05:37.151Z,7.25
2023-03-19T12:08:36.963Z,7.43
2023-03-19T12:11:41.444Z,10.00
2023-03-19T12:14:26.736Z,8.98
2023-03-19T12:17:17.406Z,8.75
2023-03-19T12:19:53.976Z,10.40
2023-03-19T12:22:58.334Z,7.72
2023-03-19T12:26:02.481Z,9.15
2023-03-19T12:28:35.319Z,9.52
2023-03-19T12:37:21.456Z,9.43
2023-03-19T12:40:23.640Z,9.27
2023-03-19T12:45:42.615Z,8.55
2023-03-19T12:48:27.052Z,10.30
2023-03-19T12:50:59.450Z,9.13
2023-03-19T12:53:35.198Z,6.95
2023-03-19T12:56:19.317Z,8.15
2023-03-19T12:58:58.654Z,8.10
2023-03-19T13:04:56.652Z,7.55
2023-03-19T13:07:40.677Z,11.87
2023-03-19T13:13:41.791Z,7.28
2023-03-19T13:16:20.520Z,7.60
2023-03-19T13:18:55.108Z,11.17
2023-03-19T13:21:23.116Z,10.30
2023-03-19T13:24:17.696Z,7.30
2023-03-19T13:26:45.852Z,9.10
2023-03-19T13:29:27.865Z,9.93
2023-03-19T13:32:20.755Z,7.85
2023-03-19T13:34:47.600Z,5.88
2023-03-19T13:37:17.645Z,7.50
2023-03-19T13:39:46.505Z,7.78
2023-03-19T13:42:34.542Z,7.72
2023-03-19T13:45:04.099Z,8.23
2023-03-19T13:47:31.059Z,7.50
2023-03-19T13:50:06.959Z,10.52
2023-03-19T13:55:24.523Z,8.45
2023-03-19T13:58:14.544Z,7.68
2023-03-19T14:00:47.236Z,9.38
2023-03-19T14:03:31.966Z,8.10
2023-03-19T14:04:22.335Z,0
2023-03-19T14:05:59.863Z,7.90
2023-03-19T14:08:29.954Z,8.85
2023-03-19T14:10:59.533Z,6.80
2023-03-19T14:13:31.763Z,8.50
2023-03-19T14:16:07.293Z,8.38
2023-03-19T14:18:39.993Z,7.82
2023-03-19T14:21:12.924Z,7.55
2023-03-19T14:23:44.279Z,7.65
2023-03-19T14:25:01.165Z,0
2023-03-19T14:26:17.639Z,7.10
2023-03-19T14:29:04.483Z,14.40
2023-03-19T14:31:57.962Z,9.00
2023-03-19T14:37:26.122Z,7.57
2023-03-19T14:40:20.037Z,7.20
2023-03-19T14:43:05.536Z,7.13
2023-03-19T14:45:40.956Z,7.85
2023-03-19T14:54:21.442Z,8.77
2023-03-19T14:59:39.821Z,7.20
2023-03-19T15:02:20.894Z,9.80
2023-03-19T15:04:49.501Z,10.35
2023-03-19T15:07:24.314Z,8.87
2023-03-19T15:09:55.031Z,10.88
2023-03-19T15:12:24.857Z,6.05
2023-03-19T15:15:24.578Z,7.10
2023-03-19T15:18:04.132Z,6.70
2023-03-19T15:20:46.832Z,9.10
2023-03-19T15:23:26.753Z,9.07
2023-03-19T15:25:58.180Z,9.30
2023-03-19T15:30:19.230Z,0
2023-03-19T15:31:50.969Z,13.20
2023-03-19T15:32:12.801Z,0
2023-03-19T15:33:48.157Z,0
2023-03-19T15:34:23.069Z,7.60
2023-03-19T15:36:54.673Z,7.93
2023-03-19T15:39:24.715Z,6.43
2023-03-19T15:41:52.858Z,6.53
2023-03-19T15:47:19.649Z,6.50
2023-03-19T15:49:56.466Z,6.57
2023-03-19T15:52:24.700Z,7.40
2023-03-19T15:54:54.468Z,5.75
2023-03-19T15:57:23.732Z,10.05
2023-03-19T15:59:54.964Z,8.15
2023-03-19T16:02:31.432Z,7.55
2023-03-19T16:05:22.351Z,9.60
2023-03-19T16:07:53.012Z,10.27
2023-03-19T16:10:28.693Z,14.48
2023-03-19T16:15:48.114Z,13.93
2023-03-19T16:18:17.710Z,15.77
2023-03-19T16:21:13.438Z,16.52
2023-03-19T16:24:00.990Z,8.30
2023-03-19T16:29:29.251Z,8.80
2023-03-19T16:32:08.469Z,9.07
2023-03-19T16:34:42.659Z,6.80
2023-03-19T16:37:34.085Z,8.75
2023-03-19T16:40:13.164Z,9.20
2023-03-19T16:42:46.536Z,11.18
2023-03-19T16:45:16.044Z,6.15
2023-03-19T16:50:32.537Z,9.00
2023-03-19T16:55:35.116Z,14.35
2023-03-19T16:58:08.184Z,11.75
2023-03-19T17:00:35.112Z,20.35
2023-03-19T17:03:01.928Z,12.35
2023-03-19T17:05:29.949Z,8.65
2023-03-19T17:07:56.801Z,9.13
2023-03-19T17:10:27.117Z,8.18
2023-03-19T17:12:55.319Z,9.40
2023-03-19T17:15:28.064Z,8.32
2023-03-19T17:17:54.852Z,8.50
2023-03-19T17:23:17.126Z,11.98
2023-03-19T17:28:31.363Z,11.90
2023-03-19T17:30:58.217Z,10.10
2023-03-19T17:33:30.132Z,9.45
2023-03-19T17:35:58.632Z,8.97
2023-03-19T17:38:34.445Z,9.80
2023-03-19T17:41:02.276Z,8.68
2023-03-19T17:43:29.048Z,10.32
2023-03-19T17:45:55.974Z,9.70
2023-03-19T17:48:27.059Z,10.07
2023-03-19T17:50:58.437Z,10.68
2023-03-19T17:53:25.294Z,10.98
2023-03-19T17:55:52.329Z,10.00
2023-03-19T17:58:21.340Z,11.45
2023-03-19T18:00:49.706Z,12.85
2023-03-19T18:03:19.442Z,12.40
2023-03-19T18:08:33.253Z,9.53
2023-03-19T18:11:00.167Z,11.15
2023-03-19T18:13:26.929Z,10.60
2023-03-19T18:15:53.797Z,10.88
2023-03-19T18:18:22.005Z,10.30
2023-03-19T18:20:49.300Z,10.93
2023-03-19T18:23:16.545Z,11.50
2023-03-19T18:25:45.075Z,13.27
2023-03-19T18:28:12.237Z,13.52
2023-03-19T18:30:41.247Z,12.70
2023-03-19T18:36:06.017Z,12.10
2023-03-19T18:41:20.836Z,12.63
2023-03-19T18:43:47.852Z,12.60
2023-03-19T18:46:20.563Z,10.10
2023-03-19T18:48:47.373Z,12.57
2023-03-19T18:54:00.847Z,12.55
2023-03-19T18:56:32.468Z,12.38
2023-03-19T18:59:00.632Z,15.90
2023-03-19T19:01:27.519Z,13.68
2023-03-19T19:03:54.898Z,14.05
2023-03-19T19:06:45.996Z,11.65
2023-03-19T19:12:01.107Z,11.55
2023-03-19T19:14:28.330Z,9.80
2023-03-19T19:16:55.338Z,11.25
2023-03-19T19:19:25.061Z,17.58
2023-03-19T19:21:52.316Z,11.70
2023-03-19T19:24:19.712Z,9.70
2023-03-19T19:26:48.507Z,9.85
2023-03-19T19:29:26.495Z,12.53
2023-03-19T19:31:54.177Z,10.52
2023-03-19T19:34:21.849Z,13.20
2023-03-19T19:36:48.688Z,16.88
2023-03-19T19:39:15.463Z,9.88
2023-03-19T19:41:42.261Z,10.30
2023-03-19T19:44:16.940Z,9.48
2023-03-19T19:46:43.842Z,9.10
2023-03-19T19:49:15.123Z,10.30
2023-03-19T19:51:41.937Z,9.40
2023-03-19T19:54:08.738Z,9.52
2023-03-19T19:56:35.614Z,16.42
2023-03-19T19:59:04.495Z,10.27
2023-03-19T20:01:31.329Z,10.55
2023-03-19T20:03:58.161Z,12.32
2023-03-19T20:09:11.733Z,11.68
2023-03-19T20:11:38.965Z,10.48
2023-03-19T20:14:05.738Z,10.30
2023-03-19T20:16:32.538Z,10.50
2023-03-19T20:18:59.388Z,8.73
2023-03-19T20:21:26.197Z,12.15
2023-03-19T20:23:53.111Z,21.45
2023-03-19T20:26:22.711Z,16.48
2023-03-19T20:28:50.044Z,10.10
2023-03-19T20:31:26.319Z,9.33
2023-03-19T20:36:39.852Z,8.80
2023-03-19T20:41:53.333Z,14.35
2023-03-19T20:47:20.758Z,9.43
2023-03-19T20:49:48.650Z,9.57
2023-03-19T20:52:15.408Z,8.85
2023-03-19T20:54:42.926Z,11.45
2023-03-19T20:57:14.028Z,16.10
2023-03-19T20:59:41.197Z,16.27
2023-03-19T21:05:13.177Z,10.35
2023-03-19T21:06:56.137Z,0
2023-03-19T21:07:40.138Z,10.27
2023-03-19T21:10:35.988Z,16.25
2023-03-19T21:13:03.422Z,13.43
2023-03-19T21:18:17.068Z,11.38
2023-03-19T21:23:37.600Z,11.97
2023-03-19T21:26:19.059Z,14.00
2023-03-19T21:28:47.548Z,11.85
2023-03-19T21:33:42.765Z,11.75
2023-03-19T21:36:09.986Z,31.02
2023-03-19T21:41:25.796Z,28.65
2023-03-19T21:46:46.803Z,17.90
2023-03-19T21:52:04.362Z,17.30
2023-03-19T21:54:31.148Z,17.95
2023-03-19T21:56:57.912Z,15.70
2023-03-19T21:59:30.809Z,43.90
2023-03-19T22:01:57.615Z,27.15
2023-03-19T22:04:24.428Z,33.30
2023-03-19T22:06:51.290Z,22.90
2023-03-19T22:09:18.064Z,40.13
2023-03-19T22:11:44.913Z,26.50
2023-03-19T22:14:18.738Z,29.83
2023-03-19T22:16:46.876Z,28.05
2023-03-19T22:19:15.223Z,42.88
2023-03-19T22:21:42.163Z,29.63
2023-03-19T22:24:08.967Z,25.03
2023-03-19T22:26:41.549Z,21.02
2023-03-19T22:29:15.839Z,23.20
2023-03-19T22:31:43.031Z,27.23
2023-03-19T22:34:17.839Z,25.70
2023-03-19T22:36:44.917Z,24.25
2023-03-19T22:39:12.057Z,26.23
2023-03-19T22:41:41.732Z,17.60
2023-03-19T22:44:31.598Z,20.70
2023-03-19T22:47:01.081Z,53.40
2023-03-19T22:49:28.803Z,50.40
2023-03-19T22:51:56.791Z,20.92
2023-03-19T22:54:23.851Z,38.60
2023-03-19T22:56:50.655Z,39.30
2023-03-19T22:59:17.422Z,22.33
2023-03-19T23:01:46.156Z,64.97
2023-03-19T23:04:19.251Z,61.97
2023-03-19T23:06:46.447Z,40.25
2023-03-19T23:12:06.594Z,22.83
2023-03-19T23:14:33.408Z,42.80
2023-03-19T23:17:02.578Z,20.20
2023-03-19T23:19:35.306Z,43.50
2023-03-19T23:24:51.053Z,23.80
2023-03-19T23:27:25.882Z,30.70
2023-03-19T23:29:53.122Z,50.38
2023-03-19T23:32:19.876Z,35.08
2023-03-19T23:34:59.211Z,51.10
2023-03-19T23:35:03.693Z,0
2023-03-19T23:37:27.213Z,24.88
2023-03-19T23:39:54.012Z,19.60
2023-03-19T23:45:34.177Z,45.05
2023-03-19T23:48:05.811Z,41.70
2023-03-19T23:50:33.860Z,60.85
2023-03-19T23:55:51.034Z,33.78
2023-03-19T23:58:18.836Z,36.15
